Time;durP1;ratioP1;P1;durP2;ratioP2;P2;SDS_P1;SDS_P2;PMS_P1;PMS_P2;Temp;Humidity;BMP_temperature;BMP_pressure;BME280_temperature;BME280_humidity;BME280_pressure;Samples;Min_cycle;Max_cycle;Signal;HPM_P1;HPM_P2
2023/10/15 00:00:15;;;;;;;16.75;8.68;;;;;;;17.72;50.53;99377.00;5050272;28;20025;-39
2023/10/15 00:02:43;;;;;;;17.60;8.15;;;;;;;17.74;50.20;99381.06;5050799;28;20025;-39
2023/10/15 00:05:12;;;;;;;14.95;8.77;;;;;;;17.62;50.49;99380.44;5050821;28;20029;-39
2023/10/15 00:07:38;;;;;;;15.73;8.30;;;;;;;17.61;50.45;99370.75;5050909;28;20025;-38
2023/10/15 00:10:09;;;;;;;20.02;8.80;;;;;;;17.53;50.77;99369.31;5054490;28;20079;-37
2023/10/15 00:12:34;;;;;;;18.75;8.75;;;;;;;17.52;50.27;99370.41;5054127;28;20082;-38
2023/10/15 00:15:00;;;;;;;14.95;8.75;;;;;;;17.52;50.36;99361.53;5054026;28;20041;-37
2023/10/15 00:17:27;;;;;;;18.45;8.90;;;;;;;17.59;49.65;99364.78;5054361;28;20064;-39
2023/10/15 00:19:53;;;;;;;17.33;8.35;;;;;;;17.34;50.78;99358.19;5053918;28;20108;-39
2023/10/15 00:22:18;;;;;;;16.58;8.50;;;;;;;17.24;50.74;99352.72;5053733;28;20112;-38
2023/10/15 00:24:44;;;;;;;18.50;8.80;;;;;;;17.22;51.39;99359.41;5054062;28;20048;-38
2023/10/15 00:27:09;;;;;;;18.77;8.32;;;;;;;17.19;51.11;99350.81;5053704;28;20109;-38
2023/10/15 00:29:35;;;;;;;16.08;8.07;;;;;;;17.30;51.45;99348.97;5053851;28;20103;-37
2023/10/15 00:32:01;;;;;;;15.38;9.07;;;;;;;17.27;50.88;99349.53;5053571;28;20048;-38
2023/10/15 00:34:30;;;;;;;19.17;8.90;;;;;;;17.26;51.17;99347.88;5053927;28;20032;-39
2023/10/15 00:36:55;;;;;;;13.80;8.13;;;;;;;17.24;51.12;99350.03;5053594;28;20119;-39
2023/10/15 00:39:21;;;;;;;14.07;8.25;;;;;;;17.27;51.23;99346.00;5053847;28;20116;-40
2023/10/15 00:41:47;;;;;;;18.63;8.35;;;;;;;17.35;51.17;99353.59;5053565;28;20392;-40
2023/10/15 00:44:14;;;;;;;15.90;8.43;;;;;;;17.27;50.95;99336.06;5052253;28;20029;-40
2023/10/15 00:46:40;;;;;;;15.82;8.15;;;;;;;17.22;51.49;99341.41;5054171;28;20074;-38
2023/10/15 00:49:12;;;;;;;16.05;8.60;;;;;;;17.22;51.60;99340.59;5053386;28;20550;-39
2023/10/15 00:51:44;;;;;;;18.42;8.45;;;;;;;17.27;51.03;99341.44;5053329;28;20017;-39
2023/10/15 00:54:15;;;;;;;16.35;8.77;;;;;;;17.30;51.26;99340.13;5053341;28;20037;-39
2023/10/15 00:56:44;;;;;;;16.63;8.90;;;;;;;17.28;51.28;99334.19;5053461;28;20021;-39
2023/10/15 01:04:26;;;;;;;17.98;9.15;;;;;;;17.37;50.63;99336.13;5053836;28;20079;-40
2023/10/15 01:06:52;;;;;;;13.70;8.48;;;;;;;17.30;51.15;99337.44;5052957;28;20433;-40
2023/10/15 01:11:44;;;;;;;15.35;8.80;;;;;;;17.21;51.52;99337.09;5053255;28;20452;-38
2023/10/15 01:14:13;;;;;;;17.30;8.43;;;;;;;17.24;52.14;99330.41;5052943;28;20029;-37
2023/10/15 01:16:40;;;;;;;14.60;8.73;;;;;;;17.38;51.62;99335.09;5053229;28;20025;-39
2023/10/15 01:21:53;;;;;;;17.92;8.75;;;;;;;17.34;51.31;99333.97;5052238;28;20029;-39
2023/10/15 01:24:19;;;;;;;16.88;8.52;;;;;;;17.27;51.95;99327.16;5052981;28;20025;-38
2023/10/15 01:26:51;;;;;;;13.20;8.27;;;;;;;17.28;51.52;99326.91;5052835;28;20020;-39
2023/10/15 01:29:21;;;;;;;15.45;8.68;;;;;;;17.16;52.46;99326.31;5052891;28;20025;-39
2023/10/15 01:31:58;;;;;;;13.90;8.32;;;;;;;17.19;52.31;99325.78;5052792;28;20020;-38
2023/10/15 01:34:24;;;;;;;19.33;8.93;;;;;;;17.03;52.40;99322.16;5052749;28;20025;-38
2023/10/15 01:36:51;;;;;;;16.27;8.27;;;;;;;17.11;52.52;99324.38;5052243;28;20045;-37
2023/10/15 01:42:20;;;;;;;14.98;7.75;;;;;;;17.07;52.67;99325.16;5043977;28;20481;-39
2023/10/15 01:44:48;;;;;;;15.13;8.25;;;;;;;17.04;52.59;99329.16;5053089;28;20091;-39
2023/10/15 01:47:14;;;;;;;16.38;8.38;;;;;;;17.02;52.22;99322.41;5052626;28;20025;-39
2023/10/15 01:49:39;;;;;;;17.15;8.20;;;;;;;17.07;52.36;99328.63;5052517;28;20404;-39
2023/10/15 01:52:12;;;;;;;13.80;8.02;;;;;;;17.05;52.70;99327.28;5052226;28;20021;-39
2023/10/15 01:54:45;;;;;;;15.32;8.57;;;;;;;17.12;52.28;99328.69;5052046;28;20032;-40
2023/10/15 01:57:14;;;;;;;15.48;8.43;;;;;;;17.16;51.96;99327.09;5052532;28;20028;-40
2023/10/15 01:59:45;;;;;;;14.38;8.07;;;;;;;17.16;51.72;99327.09;5052484;28;20025;-40
2023/10/15 02:02:18;;;;;;;14.57;7.30;;;;;;;17.11;51.44;99319.00;5052106;28;20029;-40
2023/10/15 02:04:44;;;;;;;14.63;8.05;;;;;;;17.12;51.67;99325.19;5052264;28;20029;-41
2023/10/15 02:07:20;;;;;;;15.95;6.63;;;;;;;17.15;51.64;99332.72;5052232;28;20021;-39
2023/10/15 02:09:50;;;;;;;10.90;6.90;;;;;;;17.20;51.23;99336.28;5051832;28;20044;-39
2023/10/15 02:12:20;;;;;;;13.13;6.80;;;;;;;17.18;51.59;99340.28;5052192;28;20021;-38
2023/10/15 02:14:47;;;;;;;13.25;6.53;;;;;;;17.18;51.18;99333.03;5051851;28;20024;-38
2023/10/15 02:17:18;;;;;;;11.73;6.22;;;;;;;17.17;51.00;99336.81;5051894;28;20059;-39
2023/10/15 02:19:44;;;;;;;11.63;6.30;;;;;;;17.17;51.17;99334.13;5051877;28;20409;-40
2023/10/15 02:22:13;;;;;;;12.13;6.68;;;;;;;17.14;51.75;99331.94;5051812;28;20112;-40
2023/10/15 02:24:48;;;;;;;14.23;6.88;;;;;;;17.19;51.78;99333.84;5052013;28;20029;-40
2023/10/15 02:27:24;;;;;;;15.35;6.80;;;;;;;17.17;51.44;99328.75;5051566;28;20029;-40
2023/10/15 02:29:51;;;;;;;14.23;6.45;;;;;;;17.18;51.78;99337.59;5051471;28;20025;-39
2023/10/15 02:34:52;;;;;;;10.23;6.43;;;;;;;17.18;51.08;99324.97;5051483;28;20098;-40
2023/10/15 02:37:19;;;;;;;11.02;5.55;;;;;;;17.15;51.03;99317.44;5051331;28;20048;-41
2023/10/15 02:39:51;;;;;;;12.52;5.68;;;;;;;17.06;51.39;99313.59;5051283;28;20028;-38
2023/10/15 02:42:20;;;;;;;10.80;5.90;;;;;;;17.00;51.45;99309.22;5051394;28;20108;-38
2023/10/15 02:44:50;;;;;;;12.10;5.70;;;;;;;17.05;50.97;99317.34;5051224;28;20160;-39
2023/10/15 02:48:09;;;;;;;16.00;5.90;;;;;;;17.11;51.18;99319.00;5050369;28;20112;-39
2023/10/15 02:50:10;;;;;;;10.95;6.00;;;;;;;17.17;51.06;99311.78;5047382;28;20045;-39
2023/10/15 02:52:35;;;;;;;14.23;5.70;;;;;;;17.15;50.90;99312.06;5051490;28;20024;-40
2023/10/15 02:55:11;;;;;;;11.43;5.82;;;;;;;17.00;51.50;99311.91;5051579;28;20067;-39
2023/10/15 02:57:43;;;;;;;12.00;5.50;;;;;;;16.99;51.24;99302.25;5051148;28;20025;-38
2023/10/15 03:00:15;;;;;;;10.40;5.55;;;;;;;17.03;50.38;99300.66;5050743;28;20056;-39
2023/10/15 03:02:43;;;;;;;11.00;5.85;;;;;;;16.96;51.13;99303.56;5050901;28;20064;-39
2023/10/15 03:05:13;;;;;;;11.15;5.80;;;;;;;16.86;50.92;99298.09;5050915;28;20128;-39
2023/10/15 03:07:44;;;;;;;11.60;5.38;;;;;;;16.84;50.97;99296.75;5050895;28;20033;-39
2023/10/15 03:10:21;;;;;;;14.30;5.53;;;;;;;16.69;51.54;99302.75;5051271;28;20024;-39
2023/10/15 03:12:50;;;;;;;15.95;5.47;;;;;;;16.60;51.53;99305.91;5051115;28;20021;-40
2023/10/15 03:15:17;;;;;;;11.32;5.40;;;;;;;16.58;52.24;99304.50;5050921;28;20113;-39
2023/10/15 03:17:43;;;;;;;10.20;5.60;;;;;;;16.66;51.51;99304.06;5050714;28;20508;-39
2023/10/15 03:22:42;;;;;;;9.80;5.50;;;;;;;16.85;51.79;99298.34;5051054;28;20367;-38
2023/10/15 03:25:13;;;;;;;13.40;5.50;;;;;;;16.94;50.92;99294.13;5050812;28;20052;-40
2023/10/15 03:27:46;;;;;;;12.95;5.82;;;;;;;16.89;50.85;99294.91;5050740;28;20048;-39
2023/10/15 03:30:13;;;;;;;11.45;5.18;;;;;;;16.78;51.63;99293.16;5050904;28;20029;-40
2023/10/15 03:32:44;;;;;;;12.48;5.72;;;;;;;16.74;51.61;99289.38;5050723;28;20067;-40
2023/10/15 03:37:59;;;;;;;9.15;5.95;;;;;;;16.80;51.27;99288.34;5050241;28;20052;-38
2023/10/15 03:43:21;;;;;;;8.57;6.38;;;;;;;15.99;53.82;99286.41;5051281;28;20032;-39
2023/10/15 03:45:53;;;;;;;11.32;6.40;;;;;;;15.83;54.81;99278.19;5054905;28;20028;-40
2023/10/15 03:48:29;;;;;;;14.45;6.80;;;;;;;16.00;54.52;99278.13;5054702;28;20412;-39
2023/10/15 03:50:55;;;;;;;14.18;6.90;;;;;;;16.15;54.34;99282.06;5054456;28;20056;-41
2023/10/15 03:53:23;;;;;;;12.15;6.78;;;;;;;15.94;55.25;99281.81;5054701;28;20021;-40
2023/10/15 03:55:49;;;;;;;17.70;6.82;;;;;;;16.17;54.11;99287.97;5054596;28;20460;-40
2023/10/15 03:58:17;;;;;;;16.42;7.45;;;;;;;15.81;54.66;99276.81;5054084;28;20045;-40
2023/10/15 04:00:46;;;;;;;13.02;6.82;;;;;;;15.89;55.52;99283.63;5054302;28;20134;-40
2023/10/15 04:03:22;;;;;;;10.35;6.63;;;;;;;15.12;57.57;99279.84;5054603;28;20414;-39
2023/10/15 04:06:00;;;;;;;12.27;6.47;;;;;;;15.24;57.30;99283.25;5054505;28;20025;-40
2023/10/15 04:08:26;;;;;;;12.43;6.35;;;;;;;15.53;56.98;99285.78;5054693;28;20460;-40
2023/10/15 04:10:55;;;;;;;10.65;6.47;;;;;;;15.66;56.26;99287.31;5054544;28;20033;-40
2023/10/15 04:13:21;;;;;;;11.63;6.32;;;;;;;15.77;55.88;99283.75;5054525;28;20048;-40
2023/10/15 04:15:47;;;;;;;15.27;6.95;;;;;;;15.73;55.96;99275.38;5054377;28;20025;-40
2023/10/15 04:18:13;;;;;;;12.00;7.13;;;;;;;15.69;56.55;99276.06;5054480;28;20056;-41
2023/10/15 04:20:41;;;;;;;13.70;6.93;;;;;;;15.69;56.32;99274.22;5054205;28;20472;-41
2023/10/15 04:23:12;;;;;;;10.90;6.88;;;;;;;15.78;56.86;99266.56;5054395;28;20477;-38
2023/10/15 04:25:38;;;;;;;13.85;6.50;;;;;;;15.88;56.18;99272.09;5054866;28;20031;-39
2023/10/15 04:28:14;;;;;;;10.07;6.72;;;;;;;15.96;55.34;99268.94;5054266;28;20518;-39
2023/10/15 04:30:40;;;;;;;12.13;6.38;;;;;;;16.06;55.33;99265.56;5053108;28;20107;-39
2023/10/15 04:33:17;;;;;;;11.90;6.82;;;;;;;16.12;54.94;99269.13;5061260;28;20032;-39
2023/10/15 04:35:43;;;;;;;10.93;6.63;;;;;;;16.04;56.06;99262.34;5073956;28;20377;-39
2023/10/15 04:38:09;;;;;;;13.13;6.53;;;;;;;16.12;55.12;99264.56;5065359;28;20091;-42
2023/10/15 04:43:24;;;;;;;13.43;6.97;;;;;;;15.91;55.18;99265.41;5054365;28;20040;-40
2023/10/15 04:45:50;;;;;;;14.00;6.93;;;;;;;15.95;55.58;99261.94;5054216;28;20074;-41
2023/10/15 04:48:15;;;;;;;16.02;6.80;;;;;;;16.09;55.11;99267.75;5054066;28;20021;-40
2023/10/15 04:50:45;;;;;;;13.00;6.63;;;;;;;16.18;54.98;99257.38;5053506;28;20487;-40
2023/10/15 04:55:47;;;;;;;13.70;6.55;;;;;;;16.41;54.36;99251.72;5053462;28;19916;-40
2023/10/15 04:58:12;;;;;;;10.35;6.65;;;;;;;16.42;53.97;99258.69;5053529;28;20025;-40
2023/10/15 05:00:45;;;;;;;26.30;12.77;;;;;;;16.44;54.20;99253.09;5051474;28;20024;-40
2023/10/15 05:03:11;;;;;;;22.13;14.80;;;;;;;16.55;54.11;99257.50;5050420;28;20036;-39
2023/10/15 05:05:37;;;;;;;14.75;8.43;;;;;;;16.63;54.64;99250.03;5053352;28;20104;-38
2023/10/15 05:08:03;;;;;;;23.90;8.68;;;;;;;16.85;54.66;99253.50;5053611;28;20025;-39
2023/10/15 05:10:33;;;;;;;14.95;7.65;;;;;;;17.12;53.62;99253.41;5053524;28;20481;-40
2023/10/15 05:12:59;;;;;;;13.20;7.10;;;;;;;17.13;53.99;99246.16;5053464;28;20116;-40
2023/10/15 05:15:26;;;;;;;10.07;6.85;;;;;;;17.68;52.51;99254.81;5050416;28;20108;-41
2023/10/15 05:17:51;;;;;;;11.52;6.43;;;;;;;17.91;51.76;99254.38;5052888;28;20017;-39
2023/10/15 05:20:19;;;;;;;10.40;6.10;;;;;;;18.09;51.11;99260.41;5053544;28;20393;-39
2023/10/15 05:22:45;;;;;;;14.07;6.50;;;;;;;18.40;50.87;99255.88;5052889;28;20017;-41
2023/10/15 05:25:20;;;;;;;11.60;5.88;;;;;;;18.72;50.25;99262.94;5050246;28;20109;-38
2023/10/15 05:27:49;;;;;;;8.32;5.68;;;;;;;19.05;49.50;99258.91;5047942;28;20025;-39
2023/10/15 05:30:15;;;;;;;12.43;6.05;;;;;;;19.31;48.66;99256.97;5050036;28;20024;-40
2023/10/15 05:32:43;;;;;;;12.55;5.80;;;;;;;19.48;48.31;99253.19;5036451;28;20543;-40
2023/10/15 05:35:09;;;;;;;13.77;5.68;;;;;;;19.72;47.84;99256.91;5044308;28;20032;-37
2023/10/15 05:37:39;;;;;;;9.63;5.65;;;;;;;20.06;47.93;99248.09;5051395;28;20457;-39
2023/10/15 05:40:06;;;;;;;9.40;5.78;;;;;;;20.44;46.35;99243.00;5050475;28;20032;-39
2023/10/15 05:42:32;;;;;;;12.73;6.18;;;;;;;20.68;45.08;99253.97;5032591;28;20124;-39
2023/10/15 05:44:58;;;;;;;15.55;5.90;;;;;;;20.88;45.08;99246.78;5032379;28;20032;-38
2023/10/15 05:47:23;;;;;;;13.02;5.80;;;;;;;21.27;43.98;99249.38;5032387;28;20025;-39
2023/10/15 05:49:49;;;;;;;12.45;5.78;;;;;;;21.39;43.27;99245.50;5032338;28;20021;-40
2023/10/15 05:52:15;;;;;;;13.15;6.30;;;;;;;21.45;43.48;99239.75;5032026;28;20025;-40
2023/10/15 05:54:40;;;;;;;8.82;5.15;;;;;;;21.65;42.95;99243.34;5032449;28;20018;-38
2023/10/15 05:57:06;;;;;;;10.45;5.20;;;;;;;21.56;42.53;99242.34;5031356;28;20029;-39
2023/10/15 05:59:35;;;;;;;11.77;5.18;;;;;;;21.98;41.82;99236.13;5030937;28;20086;-39
2023/10/15 06:02:00;;;;;;;15.68;4.90;;;;;;;22.45;40.87;99245.28;5048821;28;20040;-40
2023/10/15 06:04:26;;;;;;;11.70;5.28;;;;;;;22.68;40.12;99248.19;5050549;28;20485;-41
2023/10/15 06:06:52;;;;;;;15.10;4.88;;;;;;;22.72;40.02;99240.25;5049927;28;20032;-38
2023/10/15 06:09:17;;;;;;;22.67;8.23;;;;;;;23.17;39.08;99240.59;5050770;28;20527;-41
2023/10/15 06:11:42;;;;;;;16.58;6.93;;;;;;;23.46;38.21;99234.09;5051197;28;20099;-39
2023/10/15 06:14:08;;;;;;;15.93;5.80;;;;;;;23.58;38.50;99237.09;5051598;28;20547;-39
2023/10/15 06:16:34;;;;;;;12.60;5.47;;;;;;;23.75;37.96;99248.16;5051674;28;20048;-40
2023/10/15 06:19:00;;;;;;;14.95;8.00;;;;;;;23.80;38.21;99237.22;5051436;28;20742;-39
2023/10/15 06:21:25;;;;;;;13.05;5.32;;;;;;;24.28;36.83;99241.38;5051340;28;20226;-40
2023/10/15 06:23:52;;;;;;;12.20;4.80;;;;;;;24.79;36.28;99239.38;5051358;28;20021;-40
2023/10/15 06:26:18;;;;;;;7.78;4.70;;;;;;;25.11;35.47;99237.47;5049761;28;20029;-41
2023/10/15 06:28:43;;;;;;;8.23;4.75;;;;;;;25.41;35.07;99240.53;5051336;28;20043;-40
2023/10/15 06:31:09;;;;;;;9.57;4.75;;;;;;;25.53;34.76;99240.72;5050976;28;20520;-39
2023/10/15 06:33:37;;;;;;;7.15;3.95;;;;;;;25.69;34.14;99239.19;5050775;28;20024;-41
2023/10/15 06:36:03;;;;;;;9.20;4.38;;;;;;;25.84;34.09;99235.22;5050648;28;20405;-40
2023/10/15 06:38:29;;;;;;;10.77;4.40;;;;;;;26.10;34.19;99242.66;5050503;28;20053;-42
2023/10/15 06:40:54;;;;;;;10.13;4.53;;;;;;;26.21;34.13;99240.44;5050296;28;20017;-38
2023/10/15 06:43:19;;;;;;;15.27;4.65;;;;;;;26.47;33.65;99243.16;5050619;28;20025;-38
2023/10/15 06:45:45;;;;;;;13.05;5.00;;;;;;;26.73;33.34;99237.69;5050993;28;20017;-41
2023/10/15 06:48:10;;;;;;;8.68;4.78;;;;;;;27.10;32.79;99229.91;5050845;28;20082;-40
2023/10/15 06:50:36;;;;;;;9.25;4.38;;;;;;;27.28;32.49;99231.50;5050502;28;20071;-41
2023/10/15 06:53:03;;;;;;;10.32;4.80;;;;;;;27.46;32.18;99226.75;5051126;28;20029;-40
2023/10/15 06:55:31;;;;;;;9.63;4.40;;;;;;;27.33;32.14;99227.78;5050785;28;20548;-42
2023/10/15 06:57:57;;;;;;;7.78;4.47;;;;;;;27.80;31.72;99226.91;5051183;28;20025;-40
2023/10/15 07:00:22;;;;;;;6.70;4.20;;;;;;;28.10;31.04;99229.63;5050646;28;20078;-40
2023/10/15 07:02:49;;;;;;;13.52;5.35;;;;;;;28.11;30.77;99226.56;5050218;28;20032;-39
2023/10/15 07:05:16;;;;;;;11.55;4.75;;;;;;;27.89;31.10;99214.00;5050587;28;20120;-39
2023/10/15 07:07:41;;;;;;;7.97;4.68;;;;;;;28.42;30.67;99226.13;5050362;28;20362;-40
2023/10/15 07:10:08;;;;;;;12.30;5.93;;;;;;;28.65;30.38;99220.31;5050680;28;20024;-42
2023/10/15 07:12:34;;;;;;;8.35;4.55;;;;;;;28.68;30.20;99210.66;5050329;28;20028;-42
2023/10/15 07:14:59;;;;;;;14.45;7.60;;;;;;;28.79;30.14;99201.69;5050400;28;20473;-39
2023/10/15 07:17:25;;;;;;;11.45;5.00;;;;;;;28.79;29.83;99198.94;5050508;28;20021;-40
2023/10/15 07:19:51;;;;;;;6.60;4.47;;;;;;;28.94;29.78;99196.66;5050316;28;20427;-40
2023/10/15 07:22:16;;;;;;;6.68;4.38;;;;;;;28.93;29.62;99201.34;5050304;28;20029;-40
2023/10/15 07:24:42;;;;;;;10.10;4.43;;;;;;;29.07;29.82;99194.75;5050428;28;20055;-39
2023/10/15 07:27:07;;;;;;;12.40;4.40;;;;;;;29.30;29.53;99193.22;5050098;28;20024;-40
2023/10/15 07:29:33;;;;;;;11.70;4.43;;;;;;;29.20;29.25;99186.25;5050130;28;20078;-40
2023/10/15 07:31:59;;;;;;;7.65;4.20;;;;;;;29.30;28.91;99178.72;5050705;28;20024;-41
2023/10/15 07:34:24;;;;;;;8.88;4.03;;;;;;;29.42;29.10;99186.94;5050208;28;20013;-42
2023/10/15 07:36:56;;;;;;;6.53;4.20;;;;;;;29.73;28.51;99183.63;5050170;28;20041;-43
2023/10/15 07:39:31;;;;;;;9.93;4.53;;;;;;;28.85;29.73;99181.16;5050040;28;20086;-40
2023/10/15 07:41:57;;;;;;;7.65;4.57;;;;;;;29.10;29.49;99178.44;5050366;28;20108;-39
2023/10/15 07:44:22;;;;;;;8.25;4.15;;;;;;;29.27;29.34;99166.50;5050429;28;20434;-41
2023/10/15 07:46:52;;;;;;;9.35;4.20;;;;;;;29.41;28.88;99168.88;5050522;28;20025;-41
2023/10/15 07:49:18;;;;;;;7.10;4.20;;;;;;;29.77;28.18;99172.75;5047394;28;20040;-41
2023/10/15 07:51:43;;;;;;;8.45;4.05;;;;;;;30.14;28.02;99178.97;5034848;28;20017;-43
2023/10/15 07:54:09;;;;;;;6.63;4.03;;;;;;;30.44;28.01;99177.84;5030353;28;20024;-42
2023/10/15 07:56:35;;;;;;;9.25;4.60;;;;;;;30.49;27.35;99169.34;5044411;28;20457;-42
2023/10/15 07:59:04;;;;;;;7.13;4.30;;;;;;;30.49;27.35;99166.59;5049435;28;20025;-41
2023/10/15 08:01:31;;;;;;;7.80;4.05;;;;;;;29.78;28.76;99166.16;5049969;28;20108;-41
2023/10/15 08:03:59;;;;;;;11.07;4.93;;;;;;;30.25;28.12;99165.53;5050619;28;20051;-42
2023/10/15 08:06:27;;;;;;;10.05;5.28;;;;;;;30.09;28.93;99162.75;5050474;28;20071;-40
2023/10/15 08:08:52;;;;;;;7.30;4.50;;;;;;;29.71;29.66;99163.94;5050076;28;20519;-41
2023/10/15 08:11:18;;;;;;;10.55;4.60;;;;;;;29.91;29.17;99154.00;5049294;28;20108;-38
2023/10/15 08:13:43;;;;;;;8.10;4.43;;;;;;;29.89;28.87;99152.75;5048933;28;20035;-43
2023/10/15 08:16:09;;;;;;;9.73;4.28;;;;;;;30.11;28.56;99151.41;5049468;28;20025;-40
2023/10/15 08:18:34;;;;;;;9.77;4.70;;;;;;;30.22;28.69;99147.03;5043911;28;20024;-40
2023/10/15 08:21:03;;;;;;;12.05;4.57;;;;;;;30.34;28.82;99141.50;5037276;28;20492;-44
2023/10/15 08:23:28;;;;;;;9.95;4.70;;;;;;;29.98;29.70;99145.19;5047529;28;20106;-43
2023/10/15 08:25:54;;;;;;;10.32;4.63;;;;;;;30.05;28.60;99134.41;5049765;28;20489;-42
2023/10/15 08:28:20;;;;;;;7.45;4.75;;;;;;;29.91;28.45;99136.72;5050180;28;20060;-42
2023/10/15 08:30:45;;;;;;;8.05;4.82;;;;;;;29.59;28.91;99136.56;5053051;28;20500;-43
2023/10/15 08:33:12;;;;;;;8.55;4.90;;;;;;;29.54;28.97;99134.84;5052884;28;20370;-41
2023/10/15 08:35:38;;;;;;;8.45;4.22;;;;;;;29.66;29.42;99133.22;5053730;28;20033;-44
2023/10/15 08:38:07;;;;;;;9.85;4.43;;;;;;;29.19;30.38;99120.88;5053009;28;20409;-44
2023/10/15 08:40:36;;;;;;;;;;;;;;;29.87;30.58;99125.66;5052905;28;20131;-41
2023/10/15 08:43:10;;;;;;;7.85;4.40;;;;;;;29.50;31.61;99119.47;5052723;28;19920;-41
2023/10/15 08:45:37;;;;;;;10.57;4.38;;;;;;;29.44;30.58;99114.19;5053399;28;20128;-45
2023/10/15 08:48:05;;;;;;;8.82;4.55;;;;;;;29.82;31.39;99112.22;5053002;28;20028;-43
2023/10/15 08:50:36;;;;;;;8.52;4.45;;;;;;;29.96;29.98;99111.81;5053002;28;20024;-42
2023/10/15 08:53:04;;;;;;;9.20;4.78;;;;;;;30.26;30.02;99108.72;5052044;28;20025;-44
2023/10/15 08:55:33;;;;;;;11.40;4.70;;;;;;;30.57;28.80;99108.00;5053040;28;20036;-44
2023/10/15 08:57:59;;;;;;;7.55;4.32;;;;;;;30.15;29.30;99105.69;5053238;28;20750;-45
2023/10/15 09:00:25;;;;;;;8.00;4.43;;;;;;;30.33;28.71;99098.78;5052761;28;20079;-47
2023/10/15 09:02:56;;;;;;;9.98;4.53;;;;;;;29.58;30.60;99091.91;5052793;28;20057;-45
2023/10/15 09:05:22;;;;;;;7.22;4.55;;;;;;;29.78;30.63;99089.38;5052986;28;20086;-43
2023/10/15 09:07:49;;;;;;;10.73;5.60;;;;;;;29.55;31.88;99087.13;5052969;28;20035;-44
2023/10/15 09:10:16;;;;;;;9.27;4.30;;;;;;;29.62;29.20;99078.31;5053121;28;20035;-43
2023/10/15 09:12:42;;;;;;;10.35;4.43;;;;;;;29.78;28.57;99073.72;5053054;28;20025;-41
2023/10/15 09:15:17;;;;;;;9.48;4.38;;;;;;;29.54;28.83;99071.03;5052894;28;20032;-45
2023/10/15 09:18:02;;;;;;;11.43;4.30;;;;;;;29.11;29.50;99064.22;5052559;28;20104;-44
2023/10/15 09:20:32;;;;;;;9.02;4.15;;;;;;;29.30;29.77;99061.72;5052153;28;20481;-47
2023/10/15 09:22:59;;;;;;;12.82;4.60;;;;;;;29.46;30.72;99056.31;5052286;28;20028;-45
2023/10/15 09:25:26;;;;;;;11.00;4.40;;;;;;;29.88;29.59;99058.72;5052671;28;20060;-43
2023/10/15 09:27:55;;;;;;;6.53;3.88;;;;;;;29.44;29.25;99047.66;5052685;28;20071;-41
2023/10/15 09:30:25;;;;;;;10.18;4.25;;;;;;;29.58;30.08;99045.31;5052661;28;20029;-44
2023/10/15 09:32:50;;;;;;;7.97;4.30;;;;;;;29.87;30.12;99040.66;5052483;28;20017;-43
2023/10/15 09:35:16;;;;;;;7.60;3.80;;;;;;;30.26;28.66;99045.63;5052366;28;20422;-47
2023/10/15 09:37:44;;;;;;;10.18;4.07;;;;;;;30.77;28.91;99043.78;5052284;28;20045;-41
2023/10/15 09:40:10;;;;;;;12.38;4.18;;;;;;;30.80;27.57;99037.56;5051867;28;20110;-40
2023/10/15 09:42:38;;;;;;;9.50;4.43;;;;;;;31.16;27.16;99032.94;5051681;28;20048;-40
2023/10/15 09:45:05;;;;;;;7.65;4.13;;;;;;;31.08;27.87;99027.66;5052315;28;20029;-40
2023/10/15 09:47:33;;;;;;;8.40;4.35;;;;;;;31.01;27.31;99009.03;5052584;28;20021;-44
2023/10/15 09:49:59;;;;;;;8.32;4.15;;;;;;;30.80;28.70;99003.84;5052533;28;20040;-40
2023/10/15 09:52:28;;;;;;;5.90;4.03;;;;;;;30.94;28.02;99000.66;5052151;28;20017;-41
2023/10/15 09:54:55;;;;;;;8.73;4.45;;;;;;;31.24;27.71;99000.91;5051159;28;20044;-44
2023/10/15 09:57:23;;;;;;;12.07;4.50;;;;;;;31.56;26.88;98998.84;5052064;28;20032;-44
2023/10/15 09:59:53;;;;;;;8.15;4.05;;;;;;;31.21;27.39;99001.66;5052124;28;20033;-42
2023/10/15 10:02:29;;;;;;;8.13;4.05;;;;;;;31.25;27.43;99005.25;5031889;28;20029;-41
2023/10/15 10:05:17;;;;;;;7.95;4.25;;;;;;;31.72;26.43;99003.47;5032105;28;20535;-42
2023/10/15 10:07:54;;;;;;;9.35;4.82;;;;;;;31.71;26.61;98999.16;5031360;28;20025;-42
2023/10/15 10:10:44;;;;;;;10.45;4.50;;;;;;;31.73;25.95;98994.88;5031619;28;20053;-43
2023/10/15 10:13:28;;;;;;;8.95;4.93;;;;;;;31.34;26.99;98992.09;5031512;28;20349;-42
2023/10/15 10:15:58;;;;;;;9.85;4.47;;;;;;;31.50;27.48;98981.06;5031545;28;20026;-43
2023/10/15 10:18:29;;;;;;;9.45;4.65;;;;;;;31.74;26.15;98981.94;5031201;28;20029;-41
2023/10/15 10:20:56;;;;;;;10.02;4.55;;;;;;;31.57;26.74;98972.19;5031833;28;20057;-41
2023/10/15 10:23:22;;;;;;;8.30;4.63;;;;;;;31.91;25.70;98973.22;5031781;28;20598;-42
2023/10/15 10:25:49;;;;;;;10.48;4.30;;;;;;;31.23;25.91;98968.31;5039554;28;20025;-42
2023/10/15 10:28:17;;;;;;;11.88;4.50;;;;;;;30.39;27.38;98951.91;5048216;28;20032;-41
2023/10/15 10:30:59;;;;;;;9.32;4.38;;;;;;;30.64;27.86;98950.91;5046736;28;20099;-42
2023/10/15 10:33:42;;;;;;;9.45;4.40;;;;;;;30.33;27.76;98947.03;5051138;28;20546;-39
2023/10/15 10:36:15;;;;;;;7.18;4.32;;;;;;;30.96;27.76;98940.69;5051738;28;20040;-42
2023/10/15 10:38:55;;;;;;;6.93;4.25;;;;;;;31.58;26.67;98935.25;5051294;28;20053;-41
2023/10/15 10:41:30;;;;;;;9.20;4.43;;;;;;;32.23;26.17;98928.94;5051335;28;20087;-40
2023/10/15 10:43:55;;;;;;;9.07;4.28;;;;;;;32.84;25.14;98926.34;5051453;28;20465;-40
2023/10/15 10:46:22;;;;;;;8.43;4.22;;;;;;;32.43;25.75;98926.13;5051595;28;20036;-43
2023/10/15 10:49:25;;;;;;;6.32;4.13;;;;;;;32.82;25.06;98918.44;5048667;28;20707;-41
2023/10/15 10:52:15;;;;;;;9.55;4.07;;;;;;;32.83;24.64;98922.81;5045676;28;20088;-43
2023/10/15 10:54:40;;;;;;;;;;;;;;;33.58;23.19;98919.38;5051389;28;20035;-40
2023/10/15 10:57:07;;;;;;;8.60;4.20;;;;;;;33.74;23.61;98916.41;5051052;28;19909;-43
2023/10/15 10:59:34;;;;;;;5.50;4.13;;;;;;;33.77;23.71;98912.91;5051152;28;20033;-43
2023/10/15 11:02:00;;;;;;;8.63;4.38;;;;;;;33.08;23.91;98917.59;5050704;28;20025;-42
2023/10/15 11:04:26;;;;;;;7.15;3.85;;;;;;;33.34;23.28;98907.72;5050941;28;20538;-46
2023/10/15 11:06:51;;;;;;;12.30;4.10;;;;;;;33.17;23.84;98900.81;5050422;28;20017;-41
2023/10/15 11:09:20;;;;;;;8.90;4.65;;;;;;;32.85;24.71;98903.94;5048064;28;20024;-42
2023/10/15 11:11:46;;;;;;;;;;;;;;;33.74;24.38;98899.84;5050201;28;20025;-41
2023/10/15 11:14:15;;;;;;;8.85;4.03;;;;;;;34.15;23.31;98884.03;5049702;28;19909;-41
2023/10/15 11:16:45;;;;;;;6.90;4.22;;;;;;;33.91;23.01;98888.22;5050209;28;20436;-42
2023/10/15 11:19:14;;;;;;;8.57;4.38;;;;;;;34.00;22.98;98874.06;5049506;28;20044;-43
2023/10/15 11:21:40;;;;;;;9.30;4.10;;;;;;;34.02;23.32;98874.47;5049917;28;20021;-43
2023/10/15 11:24:09;;;;;;;7.43;4.28;;;;;;;34.37;22.78;98874.00;5049800;28;20225;-40
2023/10/15 11:26:36;;;;;;;11.18;4.60;;;;;;;34.12;22.70;98867.47;5049426;28;20021;-41
2023/10/15 11:29:02;;;;;;;8.70;4.38;;;;;;;34.09;22.77;98869.03;5049678;28;20314;-42
2023/10/15 11:31:27;;;;;;;10.30;4.50;;;;;;;34.26;23.13;98867.59;5049161;28;20077;-40
2023/10/15 11:33:54;;;;;;;8.13;3.97;;;;;;;33.49;23.64;98873.59;5049265;28;20029;-41
2023/10/15 11:36:22;;;;;;;8.07;4.10;;;;;;;33.29;23.68;98866.69;5049749;28;20037;-44
2023/10/15 11:38:49;;;;;;;6.88;4.22;;;;;;;33.48;23.71;98862.97;5049164;28;20041;-42
2023/10/15 11:41:15;;;;;;;9.48;4.35;;;;;;;33.64;23.25;98859.97;5045750;28;20044;-43
2023/10/15 11:43:43;;;;;;;6.35;4.20;;;;;;;33.64;23.47;98868.25;5049043;28;20024;-40
2023/10/15 11:46:09;;;;;;;10.15;4.60;;;;;;;33.38;23.53;98856.16;5048921;28;20021;-43
2023/10/15 11:48:35;;;;;;;7.72;4.38;;;;;;;33.58;23.61;98853.19;5049406;28;20079;-41
2023/10/15 11:51:04;;;;;;;11.48;4.35;;;;;;;32.65;24.67;98861.97;5049613;28;20424;-41
2023/10/15 11:53:29;;;;;;;;;;;;;;;32.28;24.78;98850.81;5049822;28;20035;-44
2023/10/15 11:55:54;;;;;;;11.13;4.53;;;;;;;32.47;24.54;98849.91;5049408;28;19908;-41
2023/10/15 11:58:23;;;;;;;8.38;3.92;;;;;;;32.51;24.45;98840.50;5049178;28;20262;-40
2023/10/15 12:00:51;;;;;;;6.30;4.50;;;;;;;32.98;24.43;98835.63;5048546;28;20025;-42
2023/10/15 12:03:18;;;;;;;7.70;4.22;;;;;;;33.20;23.83;98835.88;5048866;28;20094;-42